Weather observations for the past three days for
Jones Field - Bonham
Imperial (Metric)
Date Time (cdt) Wind (mph) Vis. (mi.) Weather Sky Cond. Temperature (ºF) Relative Humidity Wind Chill (°F) Heat Index (°F) Pressure Precipitation (in)
Air Dwpt 6 hour altimeter (in) sea level (mb) 1 hr 3 hr 6 hr
Max. Min.
08 07:15 S 3 10.00 Mostly Cloudy BKN110 57.2 0 0% 29.98 0.0
08 06:55 SE 6 10.00 Partly Cloudy SCT100 SCT120 57.2 0 0% 29.97 0.0
08 06:35 S 6 10.00 Mostly Cloudy BKN100 57.2 0 0% 29.97 0.0
08 06:15 S 5 10.00 Thunderstorm BKN100 57.2 53.6 88% 29.98 0.0
08 05:55 S 5 10.00 Partly Cloudy SCT100 53.6 53.6 100% 29.96 0.0
08 05:35 Calm 10.00 Thunderstorm in Vicinity CLR 53.6 53.6 100% 29.94 0.0
08 05:15 E 3 10.00 Partly Cloudy SCT120 55.4 53.6 94% 29.94 0.0
08 04:55 SE 3 10.00 Fair CLR 55.4 55.4 100% 29.95 0.0
08 04:35 S 5 10.00 Fair CLR 55.4 55.4 100% 29.95 0.0
08 04:15 Calm 10.00 Fair CLR 55.4 55.4 100% 29.96 0.0
08 03:55 S 3 10.00 Fair CLR 55.4 55.4 100% 29.97 0.0
08 03:35 S 3 10.00 Fair CLR 57.2 57.2 100% 29.96 0.0
08 03:15 S 5 10.00 Fair CLR 55.4 55.4 100% 29.97 0.0
08 02:35 SE 3 10.00 Fair CLR 55.4 55.4 100% 29.97 0.0
08 02:15 S 3 10.00 Fair CLR 55.4 55.4 100% 29.98 0.0
08 01:55 S 5 10.00 Fair CLR 55.4 55.4 100% 29.99 0.0
08 01:35 S 3 10.00 Fair CLR 57.2 55.4 94% 29.99 0.0
08 01:15 Calm 10.00 Fair CLR 57.2 55.4 94% 29.99 0.0
08 00:55 SW 3 10.00 Fair CLR 57.2 55.4 94% 30 0.0
08 00:35 S 5 10.00 Fair CLR 57.2 55.4 94% 30 0.0
08 00:15 S 3 5.00 Fog/Mist CLR 57.2 55.4 94% 30 0.0
07 23:55 S 5 10.00 Fair CLR 57.2 55.4 94% 30 0.0
07 23:35 S 5 10.00 Fair CLR 57.2 53.6 88% 30 0.0
07 23:15 S 3 10.00 Fair CLR 59 53.6 82% 30 0.0
07 22:55 S 5 10.00 Fair CLR 59 53.6 82% 30 0.0
07 22:35 S 6 10.00 Fair CLR 59 53.6 82% 29.99 0.0
07 21:55 S 6 10.00 Fair CLR 60.8 53.6 77% 29.99 0.0
07 21:35 S 7 10.00 Fair CLR 60.8 53.6 77% 29.98 0.0
07 21:15 S 7 10.00 Fair CLR 62.6 51.8 68% 29.98 0.0
07 20:55 SE 6 10.00 Fair CLR 62.6 50 64% 29.98 0.0
07 20:35 Calm 10.00 Fair CLR 62.6 50 64% 29.97 0.0
07 20:15 SE 3 10.00 Fair CLR 64.4 50 60% 29.96 0.0
07 19:55 SE 3 10.00 Fair CLR 66.2 48.2 52% 29.97 0.0
07 19:35 Calm 10.00 Fair CLR 69.8 48.2 46% 29.97 0.0
07 19:15 SE 3 10.00 Fair CLR 71.6 46.4 41% 29.97 0.0
07 18:55 E 3 10.00 Fair CLR 73.4 48.2 41% 29.97 0.0
07 18:35 SE 6 10.00 Fair CLR 71.6 46.4 41% 29.97 0.0
07 18:10 SE 7 10.00 Fair CLR 71.6 46.4 41% 29.98 0.0
07 17:55 E 7 10.00 Fair CLR 71.6 46.4 41% 29.98 0.0
07 17:35 SE 8 10.00 Fair CLR 71.6 48.2 44% 29.98 0.0
07 17:15 Calm 10.00 Fair CLR 73.4 46.4 38% 29.98 0.0
07 16:55 Calm 10.00 Fair CLR 75.2 46.4 36% 77 29.99 0.0
07 16:35 E 5 10.00 Fair CLR 77 46.4 34% 78 29.99 0.0
07 16:15 E 3 10.00 Fair CLR 75.2 46.4 36% 77 29.99 0.0
07 15:55 NW 7 7.00 Fair CLR 75.2 46.4 36% 77 29.99 0.0
07 15:35 E 5 10.00 Fair CLR 77 46.4 34% 78 30.01 0.0
07 15:15 N 7 10.00 Fair CLR 75.2 44.6 34% 77 30.01 0.0
07 14:35 NE 8 10.00 Fair CLR 73.4 48.2 41% 30.03 0.0
07 14:15 NE 8 10.00 Fair CLR 73.4 48.2 41% 30.03 0.0
07 13:55 NE 7 10.00 Fair CLR 73.4 48.2 41% 30.04 0.0
07 13:35 NE 8 10.00 Fair CLR 73.4 48.2 41% 30.05 0.0
07 13:15 NE 3 10.00 Fair CLR 73.4 46.4 38% 30.06 0.0
07 12:55 NE 6 10.00 Fair CLR 71.6 46.4 41% 30.08 0.0
07 12:15 E 3 10.00 Fair CLR 71.6 48.2 44% 30.1 0.0
07 11:55 N 6 10.00 Fair CLR 69.8 48.2 46% 30.1 0.0
07 11:35 E 7 10.00 Fair CLR 71.6 50 47% 30.11 0.0
07 10:55 NE 6 10.00 Fair CLR 68 50 53% 30.12 0.0
07 10:35 E 6 10.00 Fair CLR 64.4 50 60% 30.12 0.0
07 10:15 NE 5 10.00 Fair CLR 62.6 50 64% 30.13 0.0
07 09:55 NE 5 10.00 Fair CLR 62.6 50 64% 30.13 0.0
07 09:35 NE 3 10.00 Fair CLR 59 51.8 77% 30.14 0.0
07 09:15 N 5 10.00 Fair CLR 55.4 51.8 88% 30.14 0.0
07 08:55 N 3 10.00 Fair CLR 53.6 0 0% 30.14 0.0
07 08:35 Calm 10.00 Fair CLR 51.8 0 0% 30.14 0.0
07 08:15 NW 3 10.00 Fair CLR 51.8 0 0% 30.14 0.0
07 07:55 Calm 10.00 Fair CLR 50 0 0% 30.13 0.0
07 07:35 W 3 10.00 Fair CLR 50 0 0% 30.13 0.0
07 07:15 W 3 10.00 Fair CLR 48.2 0 0% 30.12 0.0
07 06:55 W 6 10.00 Fair CLR 48.2 0 0% 46 30.11 0.0
07 06:35 W 5 10.00 Fair CLR 46.4 0 0% 45 30.1 0.0
07 05:55 NW 5 10.00 Fair CLR 48.2 0 0% 47 30.07 0.0
07 05:35 Calm 10.00 Fair CLR 48.2 0 0% 30.07 0.0
07 05:15 Calm 10.00 Fair CLR 48.2 0 0% 30.07 0.0
07 04:55 Calm 10.00 Fair CLR 48.2 0 0% 30.06 0.0
07 04:35 Calm 10.00 Fair CLR 50 0 0% 30.06 0.0
07 04:15 N 3 10.00 Fair CLR 50 0 0% 30.06 0.0
07 03:55 N 5 10.00 Fair CLR 51.8 0 0% 30.05 0.0
07 03:35 N 6 10.00 Partly Cloudy SCT037 51.8 0 0% 30.06 0.0
07 03:15 NW 3 10.00 Mostly Cloudy BKN037 51.8 0 0% 30.05 0.0
07 02:55 NW 3 10.00 Overcast OVC037 51.8 51.8 100% 30.07 0.0
07 02:35 NW 3 10.00 Mostly Cloudy BKN037 51.8 50 94% 30.07 0.0
07 02:15 NW 3 10.00 Partly Cloudy SCT037 51.8 50 94% 30.06 0.0
07 01:55 Calm 10.00 Fair CLR 51.8 51.8 100% 30.05 0.0
07 01:35 N 3 10.00 Fair CLR 51.8 51.8 100% 30.04 0.0
07 01:15 NE 3 10.00 Fair CLR 51.8 50 94% 30.04 0.0
07 00:55 NE 3 10.00 Fair CLR 53.6 51.8 94% 30.04 0.0
07 00:35 Calm 10.00 Fair CLR 53.6 50 88% 30.05 0.0
07 00:15 NE 5 10.00 Fair CLR 53.6 50 88% 30.05 0.0
06 23:35 NE 5 10.00 Overcast OVC036 55.4 50 82% 30.06 0.0
06 23:15 NE 3 10.00 Overcast OVC036 57.2 50 77% 30.06 0.0
06 22:55 NE 5 10.00 Overcast OVC036 57.2 50 77% 30.06 0.0
06 22:35 NE 7 10.00 Overcast OVC036 57.2 50 77% 30.06 0.0
06 22:15 NE 6 10.00 Overcast OVC034 57.2 51.8 82% 30.05 0.0
06 21:55 NE 5 10.00 Overcast OVC034 57.2 51.8 82% 30.04 0.0
06 21:35 NE 7 10.00 Overcast SCT026 OVC032 57.2 51.8 82% 30.03 0.0
06 20:55 NE 6 10.00 Overcast OVC026 57.2 51.8 82% 30.01 0.0
06 20:35 NE 8 10.00 Overcast OVC031 57.2 51.8 82% 30 0.0
06 20:15 NE 8 10.00 Overcast OVC033 57.2 51.8 82% 29.99 0.0
06 19:55 NE 7 10.00 Overcast OVC031 59 51.8 77% 29.98 0.0
06 19:35 NE 8 10.00 Overcast OVC029 59 51.8 77% 29.98 0.0
06 19:15 N 8 10.00 Overcast OVC027 59 51.8 77% 29.97 0.0
06 18:55 NE 10 10.00 Overcast BKN019 OVC025 59 51.8 77% 29.97 0.0
06 18:35 NE 9 10.00 Overcast OVC017 59 51.8 77% 29.97 0.0
06 18:15 N 9 10.00 Overcast OVC017 59 51.8 77% 29.97 0.0
06 17:55 N 7 10.00 Overcast OVC017 59 51.8 77% 29.96 0.0
06 17:35 N 8 10.00 Overcast OVC017 59 51.8 77% 29.95 0.0
06 17:15 NE 9 10.00 Overcast OVC017 59 51.8 77% 29.95 0.0
06 16:55 N 8 10.00 Overcast OVC017 59 51.8 77% 29.95 0.0
06 16:35 N 7 10.00 Overcast OVC015 59 51.8 77% 29.95 0.0
06 16:15 N 9 10.00 Overcast OVC013 57.2 51.8 82% 29.96 0.0
06 15:55 N 7 10.00 Overcast OVC013 57.2 50 77% 29.97 0.0
06 15:35 N 7 10.00 Overcast OVC013 57.2 50 77% 29.97 0.0
06 15:15 N 8 10.00 Overcast OVC013 57.2 50 77% 29.97 0.0
06 14:55 N 7 10.00 Overcast OVC013 55.4 50 82% 29.97 0.0
06 14:35 NE 10 10.00 Overcast OVC013 55.4 50 82% 29.96 0.0
06 14:15 N 13 G 20 10.00 Overcast OVC013 55.4 50 82% 29.95 0.0
06 13:55 N 10 10.00 Overcast OVC013 55.4 50 82% 29.93 0.0
06 13:35 NE 13 G 17 10.00 Overcast OVC013 55.4 50 82% 29.94 0.0
06 13:15 N 9 10.00 Overcast OVC013 55.4 48.2 77% 29.95 0.0
06 12:55 N 12 10.00 Mostly Cloudy BKN013 BKN021 BKN110 55.4 48.2 77% 29.95 0.0
06 12:35 N 12 10.00 Overcast BKN015 OVC033 55.4 50 82% 29.96 0.0
06 12:15 N 6 10.00 Overcast OVC015 53.6 50 88% 29.99 0.0
06 11:55 N 9 10.00 Overcast OVC013 53.6 48.2 82% 29.98 0.0
06 11:35 NE 6 10.00 Overcast OVC013 53.6 48.2 82% 29.99 0.0
06 11:15 N 5 10.00 Overcast BKN013 OVC032 53.6 48.2 82% 29.99 0.0
06 10:55 N 10 10.00 Overcast OVC015 53.6 48.2 82% 29.96 0.0
06 10:35 N 9 10.00 Overcast OVC015 53.6 48.2 82% 29.98 0.0
06 10:15 N 13 10.00 Overcast OVC015 53.6 48.2 82% 29.98 0.0
06 09:55 N 7 10.00 Overcast OVC013 53.6 48.2 82% 29.98 0.0
06 09:35 N 9 10.00 Overcast OVC013 53.6 48.2 82% 29.95 0.0
06 09:15 N 9 10.00 Overcast OVC013 53.6 48.2 82% 29.94 0.0
06 08:55 N 10 10.00 Overcast OVC013 51.8 48.2 88% 29.94 0.0
06 08:35 N 12 10.00 Overcast OVC011 51.8 48.2 88% 29.93 0.0
06 08:15 N 8 10.00 Overcast OVC011 51.8 48.2 88% 29.93 0.0
06 07:55 N 10 10.00 Overcast OVC011 51.8 48.2 88% 29.93 0.0
06 07:35 N 10 G 17 10.00 Overcast OVC011 51.8 48.2 88% 29.93 0.0
06 07:15 N 10 10.00 Overcast OVC011 51.8 48.2 88% 29.92 0.0
06 06:55 N 8 10.00 Overcast OVC011 51.8 48.2 88% 29.91 0.0
06 06:35 N 9 10.00 Overcast OVC011 51.8 48.2 88% 29.91 0.0
06 06:15 N 10 G 20 10.00 Overcast OVC011 51.8 48.2 88% 29.89 0.0
06 05:55 N 10 10.00 Overcast OVC011 51.8 48.2 88% 29.89 0.0
06 05:35 N 9 G 17 10.00 Overcast OVC013 51.8 46.4 82% 29.87 0.0
06 05:15 NW 9 10.00 Overcast OVC013 51.8 46.4 82% 29.87 0.0
06 04:55 N 8 10.00 Overcast BKN015 OVC025 51.8 46.4 82% 29.86 0.0
06 04:35 N 8 G 17 10.00 Overcast BKN015 OVC025 51.8 46.4 82% 29.86 0.0
06 04:15 N 9 10.00 Overcast SCT015 OVC025 53.6 46.4 77% 29.85 0.0
06 03:55 N 8 10.00 Overcast OVC025 53.6 46.4 77% 29.84 0.0
06 03:35 N 8 10.00 Overcast OVC027 53.6 46.4 77% 29.85 0.0
06 03:15 N 6 10.00 Overcast OVC027 53.6 46.4 77% 29.84 0.0
06 02:55 N 7 10.00 Overcast OVC027 53.6 46.4 77% 29.83 0.0
06 02:35 N 7 10.00 Overcast OVC027 53.6 46.4 77% 29.83 0.0
06 02:15 N 10 G 16 10.00 Overcast OVC027 53.6 46.4 77% 29.82 0.0
06 01:55 N 5 10.00 Overcast OVC027 53.6 46.4 77% 29.83 0.0
06 01:35 N 12 G 17 10.00 Overcast OVC027 55.4 46.4 72% 29.84 0.0
06 01:15 N 12 10.00 Overcast OVC027 55.4 46.4 72% 29.84 0.0
06 00:55 NW 9 10.00 Overcast OVC027 55.4 48.2 77% 29.84 0.0
06 00:35 N 8 10.00 Overcast OVC027 55.4 48.2 77% 29.83 0.0
06 00:15 N 8 10.00 Overcast OVC029 55.4 48.2 77% 29.83 0.0
05 23:55 N 8 G 18 10.00 Overcast OVC029 55.4 48.2 77% 29.82 0.0
05 23:35 N 10 10.00 Overcast OVC029 57.2 50 77% 29.83 0.0
05 23:15 N 10 G 20 10.00 Overcast OVC029 57.2 50 77% 29.82 0.0
05 22:55 N 9 10.00 Overcast OVC029 57.2 50 77% 29.82 0.0
05 22:35 NW 10 10.00 Overcast OVC029 59 51.8 77% 29.81 0.0
05 22:15 N 7 10.00 Overcast OVC031 59 51.8 77% 29.8 0.0
05 21:55 N 9 10.00 Overcast SCT016 OVC031 59 51.8 77% 29.78 0.0
05 21:35 NW 8 10.00 Mostly Cloudy SCT016 BKN033 60.8 53.6 77% 29.77 0.0
05 21:15 N 12 G 16 10.00 Partly Cloudy SCT035 60.8 53.6 77% 29.76 0.0
05 20:55 N 8 10.00 Fair CLR 62.6 55.4 77% 29.75 0.0
05 20:35 N 13 G 18 10.00 Fair CLR 64.4 55.4 73% 29.74 0.0
05 20:15 N 12 10.00 Partly Cloudy SCT041 68 59 73% 29.73 0.0
05 19:55 N 10 10.00 Partly Cloudy SCT041 69.8 60.8 73% 29.71 0.0
05 19:35 NW 12 10.00 Partly Cloudy SCT045 71.6 60.8 69% 29.7 0.0
05 19:15 NW 12 G 17 10.00 Partly Cloudy SCT045 73.4 62.6 69% 29.7 0.0
05 18:55 NW 12 G 17 10.00 Fair CLR 77 62.6 61% 79 29.67 0.0
05 18:35 NW 8 10.00 Fair CLR 77 60.8 57% 79 29.66 0.0
05 18:15 NW 12 G 16 10.00 Fair CLR 78.8 59 51% 80 29.66 0.0
05 17:55 NW 9 10.00 Partly Cloudy SCT049 78.8 59 51% 80 29.66 0.0
05 17:35 NW 9 10.00 Mostly Cloudy BKN049 82.4 60.8 48% 83 29.65 0.0
05 17:15 SW 9 10.00 Partly Cloudy SCT049 84.2 68 58% 87 29.64 0.0
05 16:55 SW 12 10.00 Partly Cloudy SCT049 84.2 66.2 55% 87 29.64 0.0
05 16:35 SW 13 10.00 Partly Cloudy SCT047 86 66.2 52% 88 29.65 0.0
05 16:15 SW 15 10.00 Mostly Cloudy BKN043 87.8 69.8 55% 93 29.65 0.0
05 15:55 S 9 10.00 Mostly Cloudy BKN043 86 69.8 59% 91 29.65 0.0
05 15:35 S 12 10.00 Mostly Cloudy SCT041 BKN048 84.2 68 58% 87 29.66 0.0
05 15:15 SW 12 G 20 10.00 Partly Cloudy SCT039 86 69.8 59% 91 29.66 0.0
05 14:55 S 12 10.00 Fair CLR 82.4 68 62% 85 29.66 0.0
05 14:35 S 16 G 20 10.00 Fair CLR 82.4 68 62% 85 29.66 0.0
05 14:15 SW 18 G 22 10.00 Fair CLR 82.4 68 62% 85 29.66 0.0
05 13:55 SW 17 10.00 Partly Cloudy SCT037 82.4 68 62% 85 29.66 0.0
05 13:35 SW 17 G 22 10.00 Partly Cloudy SCT032 84.2 68 58% 87 29.67 0.0
05 13:15 S 17 10.00 Partly Cloudy SCT029 SCT037 80.6 68 66% 83 29.67 0.0
05 12:55 S 21 G 25 10.00 Fair and Breezy CLR 80.6 69.8 70% 84 29.67 0.0
05 12:35 SW 18 G 28 10.00 Partly Cloudy SCT022 80.6 69.8 70% 84 29.67 0.0
05 12:15 S 18 G 23 10.00 Fair CLR 78.8 68 70% 81 29.66 0.0
05 11:55 S 16 10.00 Partly Cloudy SCT021 77 68 74% 79 29.66 0.0
05 11:35 SW 17 G 30 10.00 Partly Cloudy SCT021 77 68 74% 79 29.68 0.0
05 11:15 S 22 G 30 10.00 Mostly Cloudy and Breezy BKN021 77 68 74% 79 29.66 0.0
05 10:35 SW 21 G 28 10.00 Overcast and Breezy OVC021 75.2 66.2 74% 77 29.66 0.0
05 10:15 S 17 G 29 10.00 Overcast BKN019 OVC025 75.2 66.2 74% 77 29.66 0.0
05 09:55 SW 23 G 28 10.00 Mostly Cloudy and Breezy BKN019 73.4 66.2 78% 29.66 0.0
05 09:35 S 20 G 26 10.00 Mostly Cloudy BKN019 BKN023 73.4 66.2 78% 29.66 0.0
05 09:15 S 17 G 28 10.00 Mostly Cloudy BKN017 73.4 66.2 78% 29.66 0.0
05 08:55 S 16 G 28 10.00 Mostly Cloudy BKN017 73.4 66.2 78% 29.65 0.0
05 08:35 S 17 G 22 10.00 Partly Cloudy SCT017 71.6 66.2 83% 29.65 0.0
05 08:15 S 17 G 26 10.00 Partly Cloudy SCT015 71.6 66.2 83% 29.65 0.0
05 07:55 S 15 G 21 10.00 Partly Cloudy SCT017 69.8 66.2 88% 29.64 0.0
05 07:35 S 15 G 25 10.00 Mostly Cloudy BKN017 69.8 66.2 88% 29.64 0.0
Date Time (cdt) Wind (mph) Vis. (mi.) Weather Sky Cond. Air Dwpt Max. Min. Relative Humidity Wind Chill (°F) Heat Index (°F) altimeter (in) sea level (mb) 1 hr 3 hr 6 hr
6 hour
Temperature (ºF) Pressure Precipitation (in)